CheckWX is a tool to help pilots better visualize weather data.  It is not intended as a substitute for an official pre-flight weather briefing.

07:17:50 UTC

KCOF METAR
Patrick AFB Airport
Cocoa Beach, Florida, USA
Current

22 mins ago

KCOF 210656Z AUTO 15009KT 10SM CLR 25/22 A2995 RMK AO2 SLP147 T02530220 $
Observed
May-21 @ 06:56 UTC
Wind
  • 150° at 9 KTS
Visibility
10 SM
Flight Rules
VFR
Cloud Levels
  • Clear skies
Temperature
25°C / 77°F
Dewpoint
22°C / 72°F
Humidity
83%
Altimeter
29.95" Hg
Pressure
1014.22 hPa
Previous

1 hour ago

KCOF 210556Z AUTO 14007KT 10SM CLR 25/22 A2996 RMK AO2 SLP150 T02520223 10265 20252 58009 $
Observed
May-21 @ 05:56 UTC
Wind
  • 140° at 7 KTS
Visibility
10 SM
Flight Rules
VFR
Cloud Levels
  • Clear skies
Temperature
25°C / 77°F
Dewpoint
22°C / 72°F
Humidity
83%
Altimeter
29.96" Hg
Pressure
1014.52 hPa
Previous

2 hours ago

KCOF 210456Z AUTO 14009KT 10SM CLR 25/23 A2998 RMK AO2 SLP157 T02540225 402880240 $
Observed
May-21 @ 04:56 UTC
Wind
  • 140° at 9 KTS
Visibility
10 SM
Flight Rules
VFR
Cloud Levels
  • Clear skies
Temperature
25°C / 77°F
Dewpoint
23°C / 73°F
Humidity
89%
Altimeter
29.98" Hg
Pressure
1015.22 hPa